AirNav   ATP
 
 1763 users online  

4Y8 Para Field Airport
Yale, Michigan, USA

GOING TO YALE?


FAA INFORMATION EFFECTIVE 29 MARCH 2018

Location

FAA Identifier: 4Y8
Lat/Long: 43-12-08.0800N / 082-45-14.0000W
43-12.134667N / 082-45.233333W
43.2022444 / -82.7538889
(estimated)
Elevation: 800 ft. / 244 m (estimated)
Variation: 06W (1985)
From city: 5 miles NE of YALE, MI
Time zone: UTC -4 (UTC -5 during Standard Time)
Zip code: 48097

Airport Operations

Airport use: Open to the public
Activation date: 03/1973
Control tower: no
ARTCC: CLEVELAND CENTER
FSS: LANSING FLIGHT SERVICE STATION
NOTAMs facility: LAN (NOTAM-D service available)
Attendance: UNATNDD
ARPT CLSD OCT - MAR & WHEN SNOW COVERD. CALL AMGR FOR RWY CONDITIONS.
Wind indicator: yes
Segmented circle: no

Airport Communications

CTAF: 122.9

Airport Services

Runway Information

Runway 6/24

Dimensions: 2500 x 65 ft. / 762 x 20 m
Surface: turf, in fair condition
Runway edge markings: RYS 06 & 24 DSPLCD THLDS MKD WITH CONES.
RUNWAY 6  RUNWAY 24
Latitude: 43-12.031333N43-12.238000N
Longitude: 082-45.476000W082-44.989333W
Traffic pattern: leftleft
Displaced threshold: 476 ft.200 ft.
Obstructions: 37 ft. trees, 274 ft. from runway, 50 ft. left of centerline, 7:1 slope to clear
APCH RATIO 20:1 AT DSPLCD THLD. 37 FT TREE 50 FT L 750 FT DSTC.
20 ft. trees, 60 ft. left and right of centerline
APCH RATIO 13:1 AT DSPLCD THLD, +20 FT TREES 260 FT DSTC, 60 FT L & R.

Airport Ownership and Management from official FAA records

Ownership: Privately-owned
Owner: RALPH P. KOHLITZ
39870 MAZUCHET DR
HARRISON TWP, MI 48045
Phone 313-320-2503
Manager: JEFFERY P. KOHLITZ
1276 GARDNER LINE
MELVIN, MI 48454
Phone 313-320-2503

Airport Operational Statistics

Aircraft operations: 50/year *
100% transient general aviation
* for 12-month period ending 31 December 2014

Additional Remarks

ROLLING TERRAIN; RY SLOPES DOWNWARD AT BOTH ENDS. OPOSITE RY END NOT VSBL FM THLDS.

Instrument Procedures

There are no published instrument procedures at 4Y8.

Some nearby airports with instrument procedures:

77G - Marlette Airport (16 nm NW)
KPHN - St Clair County International Airport (20 nm SE)
D95 - Dupont-Lapeer Airport (24 nm W)
D98 - Romeo State Airport (26 nm S)
57D - Ray Community Airport (29 nm S)
 
Loc | Ops | Rwys | IFR | FBO | Links
Com | Nav | Svcs | Stats | Notes

AirNav Hotels Sweepstakes
 
Area around 4Y8 (Para Field Airport)
 
Road maps at: MapQuest Bing Google
 
Aerial photo
No photo
 
Sectional chart

 
Airport distance calculator
Flying to Para Field Airport? Find the distance to fly.

From to 4Y8

Sunrise and sunset
Times for 24-Apr-2018
 Local
(UTC-4)
 Zulu
(UTC)
Morning civil twilight06:0510:05
Sunrise06:3610:36
Sunset20:2300:23
Evening civil twilight20:5300:53

Current date and time
Zulu (UTC)  24-Apr-2018 19:30:22
Local (UTC-4)  24-Apr-2018 15:30:22
 
METAR
KPHN 
20nm SE 
241916Z AUTO 13009KT 10SM SCT039 OVC070 16/06 A3005 RMK AO2
CYZR 
23nm SE 
241900Z AUTO 14011G16KT 9SM BKN075 BKN230 17/07 A3005 RMK SLP177 DENSITY ALT 800FT
KD95 
24nm W 
241915Z AUTO 15012G16KT 10SM SCT042 SCT050 OVC085 18/08 A3003 RMK AO2 T01790076
KCFS 
34nm NW 
241915Z AUTO 09011KT 10SM BKN049 OVC055 18/07 A3002 RMK AO2 T01770067
KMTC 
35nm S 
241856Z 15010KT 10SM -DZ SCT050 OVC100 14/09 A3004 RMK AO2A DZB40 SLP179 P60000 T01380092
KBAX 
36nm N 
241916Z AUTO 10009G14KT 10SM OVC080 19/04 A3005 RMK AO2 T01870043
TAF
CYZR 
23nm SE 
241340Z 2414/2502 14008KT P6SM SCT080 OVC100 TEMPO 2414/2418 BKN040 OVC080 BECMG 2414/2416 15012KT FM241800 15012KT P6SM BKN025 OVC080 TEMPO 2418/2422 BKN020 FM242200 13010KT 5SM -RA BR OVC020 RMK FCST BASED ON AUTO OBS. NXT FCST BY 242000Z
NOTAMs
Click for the latest NOTAMs
NOTAMs are issued by the DoD/FAA and will open in a separate window not controlled by AirNav.

 

 
 

Would you like to see your business listed on this page?

 If your business provides an interesting product or service to pilots, flight crews, aircraft, or users of the Para Field Airport, you should consider listing it here.  To start the listing process, click on the button below
 
Add a business
 

Other Pages about Para Field Airport

Page from the Michigan Airport Directory (PDF)
 
Update a link
 
Copyright © AirNav, LLC. All rights reserved. Privacy Policy  Contact